createdAt,value
2022-12-08T16:03:22.377Z,102041.31
2022-12-08T16:05:49.326Z,102060.25
2022-12-08T16:12:05.338Z,102130.75
2022-12-08T16:17:19.334Z,102214.13
2022-12-08T16:19:48.745Z,102242.50
2022-12-08T16:25:23.190Z,102295.78
2022-12-08T16:28:12.496Z,102316.47
2022-12-08T16:30:42.099Z,102321.56
2022-12-08T16:33:12.090Z,102331.88
2022-12-08T16:35:42.918Z,102341.28
2022-12-08T16:38:14.948Z,102346.41
2022-12-08T16:40:59.974Z,102354.13
2022-12-08T16:43:27.969Z,102348.00
2022-12-08T16:45:56.428Z,102350.56
2022-12-08T16:48:24.552Z,102357.44
2022-12-08T16:50:54.111Z,102347.91
2022-12-08T16:53:22.328Z,102336.66
2022-12-08T16:55:51.440Z,102335.75
2022-12-08T16:58:20.196Z,102327.97
2022-12-08T17:00:54.176Z,102308.91
2022-12-08T17:03:22.748Z,102280.34
2022-12-08T17:05:51.074Z,102243.16
2022-12-08T17:08:21.031Z,102213.75
2022-12-08T17:11:07.512Z,102181.75
2022-12-08T17:13:36.312Z,102156.66
2022-12-08T17:16:10.227Z,102131.56
2022-12-08T17:18:39.042Z,102121.13
2022-12-08T17:21:11.693Z,102119.31
2022-12-08T17:23:41.535Z,102109.72
2022-12-08T17:26:09.916Z,102114.88
2022-12-08T17:28:59.474Z,102103.59
2022-12-08T17:31:29.578Z,102099.25
2022-12-08T17:33:59.976Z,102089.69
2022-12-08T17:36:28.047Z,102079.22
2022-12-08T17:38:59.712Z,102068.84
2022-12-08T17:41:27.939Z,102054.09
2022-12-08T17:43:55.954Z,102043.72
2022-12-08T17:46:24.956Z,102029.88
2022-12-08T17:48:53.415Z,102028.97
2022-12-08T17:51:21.839Z,102024.63
2022-12-08T17:53:49.848Z,102020.25
2022-12-08T17:56:22.134Z,102018.53
2022-12-08T17:58:54.660Z,102009.88
2022-12-08T18:01:23.722Z,102015.09
2022-12-08T18:03:52.172Z,102002.13
2022-12-08T18:06:20.422Z,101997.81
2022-12-08T18:08:48.445Z,101999.53
2022-12-08T18:11:20.385Z,101998.69
2022-12-08T18:13:49.923Z,101998.59
2022-12-08T18:16:20.178Z,102005.50
2022-12-08T18:18:48.796Z,101996.00
2022-12-08T18:21:23.374Z,101993.44
2022-12-08T18:23:52.348Z,101983.94
2022-12-08T18:26:22.286Z,101986.56
2022-12-08T18:28:59.319Z,101987.44
2022-12-08T18:31:27.447Z,101986.56
2022-12-08T18:33:55.510Z,101987.41
2022-12-08T18:36:26.377Z,101986.50
2022-12-08T18:38:55.216Z,101985.63
2022-12-08T18:41:26.659Z,101973.50
2022-12-08T18:43:55.328Z,101976.06
2022-12-08T18:46:23.761Z,101974.28
2022-12-08T18:48:52.947Z,101970.81
2022-12-08T18:51:23.720Z,101965.59
2022-12-08T18:53:52.770Z,101965.56
2022-12-08T18:56:24.870Z,101955.22
2022-12-08T18:59:03.670Z,101937.97
2022-12-08T19:01:33.022Z,101932.78
2022-12-08T19:06:49.733Z,101924.97
2022-12-08T19:09:18.182Z,101924.91
2022-12-08T19:11:47.988Z,101924.00
2022-12-08T19:14:16.000Z,101923.94
2022-12-08T19:16:44.089Z,101910.09
2022-12-08T19:19:12.186Z,101904.91
2022-12-08T19:21:44.711Z,101897.13
2022-12-08T19:24:15.008Z,101892.84
2022-12-08T19:26:43.254Z,101893.72
2022-12-08T19:29:13.520Z,101891.19
2022-12-08T19:31:42.321Z,101898.97
2022-12-08T19:34:11.403Z,101889.56
2022-12-08T19:36:42.806Z,101887.03
2022-12-08T19:39:33.621Z,101877.63
2022-12-08T19:42:19.655Z,101874.25
2022-12-08T19:44:55.301Z,101867.50
2022-12-08T19:47:26.049Z,101859.88
2022-12-08T19:49:55.194Z,101854.00
2022-12-08T19:52:23.451Z,101848.09
2022-12-08T19:54:51.674Z,101842.19
2022-12-08T19:57:20.560Z,101837.94
2022-12-08T19:59:54.627Z,101847.47
2022-12-08T20:02:25.855Z,101850.13
2022-12-08T20:04:54.662Z,101855.34
2022-12-08T20:07:24.394Z,101849.34
2022-12-08T20:09:52.391Z,101847.66
2022-12-08T20:12:20.512Z,101847.78
2022-12-08T20:14:48.683Z,101847.84
2022-12-08T20:17:16.883Z,101837.53
2022-12-08T20:19:46.602Z,101834.13
2022-12-08T20:22:14.670Z,101834.13
2022-12-08T20:24:42.858Z,101834.13
2022-12-08T20:27:11.138Z,101829.81
2022-12-08T20:29:39.172Z,101825.53
2022-12-08T20:32:07.488Z,101821.28
2022-12-08T20:34:35.610Z,101823.84
2022-12-08T20:37:05.175Z,101820.34
2022-12-08T20:39:33.227Z,101834.22
2022-12-08T20:42:01.409Z,101829.03
2022-12-08T20:44:30.311Z,101829.03
2022-12-08T20:46:58.596Z,101841.03
2022-12-08T20:49:31.297Z,101834.03
2022-12-08T20:52:02.511Z,101830.63
2022-12-08T20:54:32.164Z,101831.50
2022-12-08T20:57:00.461Z,101824.53
2022-12-08T20:59:28.651Z,101824.50
2022-12-08T21:01:57.045Z,101824.41
2022-12-08T21:04:25.287Z,101821.72
2022-12-08T21:06:53.931Z,101832.84
2022-12-08T21:09:22.121Z,101831.94
2022-12-08T21:11:51.832Z,101826.75
2022-12-08T21:14:19.986Z,101818.94
2022-12-08T21:16:50.244Z,101824.88
2022-12-08T21:19:19.969Z,101818.72
2022-12-08T21:21:50.791Z,101831.59
2022-12-08T21:24:20.010Z,101823.72
2022-12-08T21:26:48.054Z,101827.16
2022-12-08T21:29:17.695Z,101810.72
2022-12-08T21:31:45.922Z,101815.03
2022-12-08T21:34:14.687Z,101813.25
2022-12-08T21:36:42.779Z,101813.19
2022-12-08T21:39:13.073Z,101815.72
2022-12-08T21:41:58.793Z,101811.31
2022-12-08T21:44:28.413Z,101804.34
2022-12-08T21:46:56.614Z,101802.56
2022-12-08T21:49:24.740Z,101797.38
2022-12-08T21:51:52.845Z,101790.41
2022-12-08T21:54:20.929Z,101782.56
2022-12-08T21:56:50.561Z,101782.56
2022-12-08T21:59:19.804Z,101778.25
2022-12-08T22:01:49.742Z,101778.28
2022-12-08T22:04:21.416Z,101779.16
2022-12-08T22:06:49.817Z,101780.03
2022-12-08T22:09:18.030Z,101782.63
